Portada
METAR-TAF:

METAR-TAF

Aeropuertos :

Ghriss, Argelia

latitud: 35-12N, longitud: 000-08E, altitud: 514 m

Observación

El informe se hizo hace 24 minutos, a las 19:00 UTC
Viento calma
Temperatura 19°C
Humedad 43%
Presión 1012 hPa
Visibilidad 10 km o más
Escasas nubes a una altura de 3000 ft
Nubes dispersas a una altura de 10000 ft
Cielo nuboso a una altura de 23300 ft

METAR: DAOV 241900Z 00000KT 9999 FEW030 SCT100 BKN233 19/06 Q1012

Hora: 20:24 (19:24 UTC)

Pronóstico

El informe se hizo hace 2 horas y 24 minutos, a las 17:00 UTC
Pronóstico válido del 24 a las 18 UTC al 25 a las 03 UTC
Viento 15 kt del norte-noroeste
Visibilidad 10 km o más
Escasas nubes a una altura de 3000 ft
Cielo nuboso a una altura de 23300 ft
Evolucionando progresivamente
del 24 a las 22 UTC al 24 a las 24 UTC

TAF: DAOV 241700Z 2418/2503 34015KT 9999 FEW030 BKN233 BECMG 2422/2424 VB02KT

Observaciones y pronósticos meteorológicos de más de 4000 aeropuertos (mensajes METAR y TAF).

Los puntos amarillos y rojos representan las estaciones disponibles.

Ponga el ratón en el punto deseado para ver el nombre de la estación.

Haga clic para ver las observaciones y los pronósticos meteorológicos.

Para cambiar el mapa : haga clic en los botones verdes con una cruz de color negro para hacer un zoom, en el botón verde con un guión para alejar o en las flechas verdes para mapas adyacentes.


METAR-TAF: